Sunday, December 21, 2014
06:10 UTC
  |  Log In   |  Register Free
Airport Search:

Ellington Airport
(KEFD)

FAA data valid effective November 13, 2014 - January 08, 2015 (unless otherwise noted).

 
 
 
 
 
 
 
 
 
 
 
 
 
 

Current Aviation Weather for Ellington Airport (KEFD)

The most recent METAR observation for KEFD was updated at: 2113
METAR Summary (Translated METAR)
KEFD
182050Z 02004KT 5SM BR SCT012 OVC033 21/20 A3002
KHOU
182053Z 02004KT 10SM FEW012 BKN032 BKN045 21/18 A3002 RMK AO2 SLP169 T02110178 56023
(6.7 nm NW from KEFD)
KLVJ
182111Z AUTO 06005KT 7SM OVC015 22/18 A3003 RMK AO2 T02170183
(6.8 nm SW from KEFD)
TAF Summary (Translated TAF)
KEFD
2104/2210 VRB06KT 9999 SCT015 BKN025 QNH3009INS BECMG 2111/2112 05006KT 4800 BR BKN008 QNH3008INS BECMG 2117/2118 05006KT 9999 NSW BKN015 QNH3003INS BECMG 2120/2121 VRB06KT 9999 SCT020 BKN070 QNH2994INS TX17/2120Z TN07/2111Z
KHOU
(6.7 nm NW from KEFD)
210523Z 2106/2206 35005KT P6SM OVC025 FM210900 VRB03KT P6SM BKN015 FM211700 11005KT P6SM SCT015 SCT070 FM212100 12005KT P6SM SCT015 BKN050 FM220300 14005KT P6SM FEW015 SCT025
  Airport Weather Conditions for KEFD

 Current Weather at EFD
52° F
Mostly Cloudy
North winds at 0.0 mph
EFD NOAA Radar

Pressure: 30.20 in
Humidity: 88%
Wind: Calm
Dew Point: 48.2°F
Visibility: 10.00 mi


Airport Weather Forecast for KEFD

Translated METAR and TAF for KEFD
Translated METAR for KEFD (0610 UTC 21 December 2014)
found at http://aviationweather.gov/adds/metars/
 
METAR text: KEFD 210550Z 03006KT 10SM OVC020 11/09 A3019
Conditions at: KEFD (HOUSTON/ELLINGTO, TX, US) observed 0550 UTC 21 December 2014
Temperature: 11.0°C (52°F)
Dewpoint: 9.0°C (48°F) [RH = 87%]
Pressure (altimeter): 30.19 inches Hg (1022.4 mb)
Winds: from the NNE (30 degrees) at 7 MPH (6 knots; 3.1 m/s)
Visibility: 10 or more miles (16+ km)
Ceiling: 2000 feet AGL
Clouds: overcast cloud deck at 2000 feet AGL
Weather: no significant weather observed at this time
Translated TAF for KEFD
Forecast for: KEFD (HOUSTON/ELLINGTO, TX, US)
TAF Text: TAF KEFD 2104/2210 VRB06KT 9999 SCT015 BKN025 QNH3009INS
Forecast period: 0400 to 1100 UTC 21 December 2014
Forecast type: FROM: standard forecast or significant change
Winds: variable direction winds at 7 MPH (6 knots; 3.1 m/s)
Visibility: 6 or more miles (10+ km)
Ceiling: 2500 feet AGL
Clouds: scattered clouds at 1500 feet AGL
broken clouds at 2500 feet AGL
Weather: no significant weather forecast for this period
TAF Text: BECMG 2111/2112 05006KT 4800 BR BKN008 QNH3008INS
Forecast period: 1100 to 1700 UTC 21 December 2014
Forecast type: BECOMING: Conditions expected to become as follows by 1200 UTC 21 December 2014
Winds: from the NE (50 degrees) at 7 MPH (6 knots; 3.1 m/s)
Visibility: 2.98 miles (4.80 km)
Ceiling: 800 feet AGL
Clouds: broken clouds at 800 feet AGL
Weather: BR  (mist)
TAF Text: BECMG 2117/2118 05006KT 9999 NSW BKN015 QNH3003INS
Forecast period: 1700 to 2000 UTC 21 December 2014
Forecast type: BECOMING: Conditions expected to become as follows by 1800 UTC 21 December 2014
Winds: from the NE (50 degrees) at 7 MPH (6 knots; 3.1 m/s)
Visibility: 6 or more miles (10+ km)
Ceiling: 1500 feet AGL
Clouds: broken clouds at 1500 feet AGL
Weather: NSW  (no significant weather)
TAF Text: BECMG 2120/2121 VRB06KT 9999 SCT020 BKN070 QNH2994INS TX17/2120Z TN07/2111Z
Forecast period: 2000 UTC 21 December 2014 to 1000 UTC 22 December 2014
Forecast type: BECOMING: Conditions expected to become as follows by 2100 UTC 21 December 2014
Winds: variable direction winds at 7 MPH (6 knots; 3.1 m/s)
Visibility: 6 or more miles (10+ km)
Ceiling: 7000 feet AGL
Clouds: scattered clouds at 2000 feet AGL
broken clouds at 7000 feet AGL
Weather: NSW  (no significant weather)

Find All Airport Services Find A Hotel Find A Rental Car Find A Golf Course Find A Restaurant $100 Hamburger



FBO's on the Field
FBO Company Facility Photos Services Transportation Aviation Fuel Prices: Prices include tax
Catering Weather Repair Courtesy Rental Type 100LL JetA JetA+ MOGAS 8087
 
Southwest Airport Services

This FBO has not yet been rated
FS:Independent
Last Updated: Nov-14
Login to update fuel prices
SS:
Contact Southwest Airport ServicesMore FBO Information
 
Add another FBO Facility Photos Catering Weather Repair Courtesy Rental Type 100LL JetA JetA+ MOGAS 8087
Services Transportation Aviation Fuel Prices: Prices include tax


model-print
model-print
model-print
model-print